• Join FlightAware (Why Join?)
  • Login
  • US Flag 
07:57PM EDT


 

Airport Tracker/Info


-or-


 

Live Flight TrackerFlight Track Log ✈ UAL6025 ✈ 15-May-2013 ✈ KORF - KIAD

Flight Track Log - Related Links

Times and Time Zones

All times are in EDT time to prevent confusion due to time zone crossing. See the UAL6025 flight status page for this flight to view local times or setup timezone preferences in your user account.

Time Position Orientation Groundspeed Altitude Reporting Facility
EDT Latitude Longitude Course Direction KTS MPH feet Rate Location/Type
05:16PM 36.8889 -76.2100 300° West 132 152 400  Level Washington Center
05:17PM 36.8553 -76.2383 214° Southwest 171 197 2,300 1,920 Climbing Washington Center
05:18PM 36.8736 -76.3086 288° West 241 277 4,100 2,040 Climbing Washington Center
05:19PM 36.8922 -76.3683 291° West 241 277 6,200 2,340 Climbing Washington Center
05:20PM 37.0646 -76.5625 302° West  Level FlightAware Approximate
05:20PM 36.9103 -76.4517 285° West 247 284 8,600  Level Washington Center
05:21PM 37.1096 -76.6543 300° West  Level FlightAware Approximate
05:21PM 36.9283 -76.5350 285° West 247 284 10,500  Level Washington Center
05:22PM 36.9717 -76.6161 304° West 253 291 11,500 1,020 Climbing Washington Center
05:23PM 37.0314 -76.6975 313° West 290 334 12,600 1,020 Climbing Washington Center
05:24PM 37.0931 -76.7844 312° West 311 358 13,600 660 Climbing Washington Center
05:25PM 37.1589 -76.8767 312° West 331 381 14,000 180 Climbing Washington Center
05:26PM 37.2267 -76.9664 314° West 345 397 14,000  Level Washington Center
05:27PM 37.3200 -77.0178 336° Northwest 360 414 14,000  Level Washington Center
05:28PM 37.4239 -77.0667 340° North 365 420 14,000  Level Washington Center
05:29PM 37.5211 -77.1131 339° North 370 426 14,000  Level Washington Center
05:30PM 37.6208 -77.1622 339° North 370 426 14,000  Level Washington Center
05:31PM 37.7078 -77.2061 338° Northwest 370 426 14,000  Level Washington Center
05:32PM 37.8072 -77.2531 340° North 370 426 14,000  Level Washington Center
05:33PM 37.9003 -77.2997 338° Northwest 370 426 14,000 -600 Level Washington Center
05:34PM 37.9978 -77.3467 339° North 370 426 12,800 -1,620 Descending Washington Center
05:35PM 38.0992 -77.4044 336° Northwest 365 420 10,800 -1,440 Descending Washington Center
05:36PM 38.1800 -77.4381 342° North 339 390 10,000 -420 Descending Washington Center
05:37PM 38.2511 -77.4081 18° North 275 316 10,000  Level Washington Center
05:38PM 38.3250 -77.3622 26° Northeast 275 316 10,000 -720 Level Washington Center
05:39PM 38.4000 -77.3589 North 275 316 8,600 -1,620 Descending Washington Center
05:40PM 38.4731 -77.3631 357° North 270 311 6,900 -1,680 Descending Washington Center
05:41PM 38.5458 -77.3650 359° North 264 304 5,300 -960 Descending Washington Center
05:42PM 38.6167 -77.3667 359° North 264 304 5,000 -240 Descending Washington Center
05:42PM 38.6500 -77.3667 360° North 265 305 5,000 -360 Level Potomac TRACON
05:43PM 38.7167 -77.3667 360° North 269 310 4,600 -540 Descending Potomac TRACON
05:44PM 38.8000 -77.3500 North 274 315 4,000 -360 Descending Potomac TRACON
05:45PM 38.8667 -77.3500 360° North 273 314 3,900 -540 Descending Potomac TRACON
05:46PM 38.9500 -77.3500 360° North 279 321 3,000 -660 Descending Potomac TRACON
05:47PM 39.0167 -77.3500 360° North 246 283 2,600 -540 Descending Potomac TRACON
05:48PM 39.0667 -77.3833 333° Northwest 228 262 2,000 -600 Descending Potomac TRACON